sensor_id;sensor_type;location;lat;lon;timestamp;P1;durP1;ratioP1;P2;durP2;ratioP2
84163;SDS011;74288;46.872;7.802;2024-01-30T00:00:28;5.28;;;1.45;;
84163;SDS011;74288;46.872;7.802;2024-01-30T00:02:54;4.57;;;1.58;;
84163;SDS011;74288;46.872;7.802;2024-01-30T00:05:20;5.72;;;1.50;;
84163;SDS011;74288;46.872;7.802;2024-01-30T00:07:46;5.65;;;1.65;;
84163;SDS011;74288;46.872;7.802;2024-01-30T00:10:12;5.53;;;1.75;;
84163;SDS011;74288;46.872;7.802;2024-01-30T00:12:38;5.60;;;1.70;;
84163;SDS011;74288;46.872;7.802;2024-01-30T00:15:04;4.80;;;1.70;;
84163;SDS011;74288;46.872;7.802;2024-01-30T00:17:33;5.40;;;1.73;;
84163;SDS011;74288;46.872;7.802;2024-01-30T00:19:59;4.88;;;1.63;;
84163;SDS011;74288;46.872;7.802;2024-01-30T00:22:25;4.80;;;1.70;;
84163;SDS011;74288;46.872;7.802;2024-01-30T00:24:51;4.63;;;1.53;;
84163;SDS011;74288;46.872;7.802;2024-01-30T00:27:17;4.55;;;1.45;;
84163;SDS011;74288;46.872;7.802;2024-01-30T00:29:42;4.55;;;1.40;;
84163;SDS011;74288;46.872;7.802;2024-01-30T00:32:08;5.55;;;1.40;;
84163;SDS011;74288;46.872;7.802;2024-01-30T00:34:34;6.27;;;1.40;;
84163;SDS011;74288;46.872;7.802;2024-01-30T00:37:00;8.73;;;1.50;;
84163;SDS011;74288;46.872;7.802;2024-01-30T00:39:26;5.07;;;1.63;;
84163;SDS011;74288;46.872;7.802;2024-01-30T00:41:53;5.67;;;1.83;;
84163;SDS011;74288;46.872;7.802;2024-01-30T00:44:18;4.88;;;1.60;;
84163;SDS011;74288;46.872;7.802;2024-01-30T00:46:44;4.32;;;1.30;;
84163;SDS011;74288;46.872;7.802;2024-01-30T00:49:11;5.22;;;1.50;;
84163;SDS011;74288;46.872;7.802;2024-01-30T00:51:37;5.60;;;1.73;;
84163;SDS011;74288;46.872;7.802;2024-01-30T00:54:03;4.60;;;1.70;;
84163;SDS011;74288;46.872;7.802;2024-01-30T00:56:29;4.32;;;1.50;;
84163;SDS011;74288;46.872;7.802;2024-01-30T00:58:55;4.07;;;1.42;;
84163;SDS011;74288;46.872;7.802;2024-01-30T01:01:21;3.95;;;1.30;;
84163;SDS011;74288;46.872;7.802;2024-01-30T01:03:47;4.95;;;1.63;;
84163;SDS011;74288;46.872;7.802;2024-01-30T01:06:13;4.53;;;1.40;;
84163;SDS011;74288;46.872;7.802;2024-01-30T01:08:39;3.97;;;1.30;;
84163;SDS011;74288;46.872;7.802;2024-01-30T01:11:05;3.83;;;1.35;;
84163;SDS011;74288;46.872;7.802;2024-01-30T01:13:31;5.10;;;1.60;;
84163;SDS011;74288;46.872;7.802;2024-01-30T01:15:57;4.05;;;1.23;;
84163;SDS011;74288;46.872;7.802;2024-01-30T01:18:23;4.32;;;1.20;;
84163;SDS011;74288;46.872;7.802;2024-01-30T01:20:49;5.72;;;1.73;;
84163;SDS011;74288;46.872;7.802;2024-01-30T01:23:15;4.33;;;1.37;;
84163;SDS011;74288;46.872;7.802;2024-01-30T01:25:41;5.00;;;1.20;;
84163;SDS011;74288;46.872;7.802;2024-01-30T01:28:07;4.07;;;1.17;;
84163;SDS011;74288;46.872;7.802;2024-01-30T01:30:33;4.32;;;1.30;;
84163;SDS011;74288;46.872;7.802;2024-01-30T01:32:59;4.50;;;1.50;;
84163;SDS011;74288;46.872;7.802;2024-01-30T01:35:27;4.82;;;1.50;;
84163;SDS011;74288;46.872;7.802;2024-01-30T01:37:53;4.47;;;1.35;;
84163;SDS011;74288;46.872;7.802;2024-01-30T01:40:25;3.50;;;1.10;;
84163;SDS011;74288;46.872;7.802;2024-01-30T01:42:51;3.97;;;1.20;;
84163;SDS011;74288;46.872;7.802;2024-01-30T01:45:17;4.78;;;1.25;;
84163;SDS011;74288;46.872;7.802;2024-01-30T01:47:44;3.30;;;1.10;;
84163;SDS011;74288;46.872;7.802;2024-01-30T01:50:12;4.00;;;1.15;;
84163;SDS011;74288;46.872;7.802;2024-01-30T01:52:39;4.20;;;1.23;;
84163;SDS011;74288;46.872;7.802;2024-01-30T01:55:06;4.43;;;1.17;;
84163;SDS011;74288;46.872;7.802;2024-01-30T01:57:33;3.67;;;1.17;;
84163;SDS011;74288;46.872;7.802;2024-01-30T01:59:59;4.25;;;1.25;;
84163;SDS011;74288;46.872;7.802;2024-01-30T02:02:25;4.32;;;1.30;;
84163;SDS011;74288;46.872;7.802;2024-01-30T02:04:52;4.22;;;1.33;;
84163;SDS011;74288;46.872;7.802;2024-01-30T02:07:18;3.20;;;1.10;;
84163;SDS011;74288;46.872;7.802;2024-01-30T02:09:44;4.03;;;1.17;;
84163;SDS011;74288;46.872;7.802;2024-01-30T02:12:10;3.85;;;1.20;;
84163;SDS011;74288;46.872;7.802;2024-01-30T02:14:44;4.40;;;1.15;;
84163;SDS011;74288;46.872;7.802;2024-01-30T02:17:10;3.95;;;1.20;;
84163;SDS011;74288;46.872;7.802;2024-01-30T02:19:36;3.50;;;1.10;;
84163;SDS011;74288;46.872;7.802;2024-01-30T02:22:02;5.22;;;1.20;;
84163;SDS011;74288;46.872;7.802;2024-01-30T02:24:28;3.78;;;1.20;;
84163;SDS011;74288;46.872;7.802;2024-01-30T02:26:54;3.20;;;1.20;;
84163;SDS011;74288;46.872;7.802;2024-01-30T02:29:20;3.40;;;1.30;;
84163;SDS011;74288;46.872;7.802;2024-01-30T02:31:46;4.55;;;1.10;;
84163;SDS011;74288;46.872;7.802;2024-01-30T02:34:13;5.55;;;1.30;;
84163;SDS011;74288;46.872;7.802;2024-01-30T02:36:42;4.13;;;1.20;;
84163;SDS011;74288;46.872;7.802;2024-01-30T02:39:08;4.53;;;1.00;;
84163;SDS011;74288;46.872;7.802;2024-01-30T02:41:34;3.95;;;1.23;;
84163;SDS011;74288;46.872;7.802;2024-01-30T02:44:00;3.08;;;1.20;;
84163;SDS011;74288;46.872;7.802;2024-01-30T02:46:26;3.75;;;1.20;;
84163;SDS011;74288;46.872;7.802;2024-01-30T02:48:52;2.93;;;1.10;;
84163;SDS011;74288;46.872;7.802;2024-01-30T02:51:18;4.60;;;1.30;;
84163;SDS011;74288;46.872;7.802;2024-01-30T02:53:44;4.78;;;1.20;;
84163;SDS011;74288;46.872;7.802;2024-01-30T02:56:10;3.57;;;1.30;;
84163;SDS011;74288;46.872;7.802;2024-01-30T02:58:37;4.53;;;1.30;;
84163;SDS011;74288;46.872;7.802;2024-01-30T03:01:02;3.72;;;1.17;;
84163;SDS011;74288;46.872;7.802;2024-01-30T03:03:28;3.15;;;1.00;;
84163;SDS011;74288;46.872;7.802;2024-01-30T03:05:54;2.50;;;0.90;;
84163;SDS011;74288;46.872;7.802;2024-01-30T03:08:20;3.55;;;1.10;;
84163;SDS011;74288;46.872;7.802;2024-01-30T03:10:46;3.90;;;1.30;;
84163;SDS011;74288;46.872;7.802;2024-01-30T03:13:12;4.27;;;1.00;;
84163;SDS011;74288;46.872;7.802;2024-01-30T03:15:38;3.95;;;1.10;;
84163;SDS011;74288;46.872;7.802;2024-01-30T03:18:04;4.00;;;1.20;;
84163;SDS011;74288;46.872;7.802;2024-01-30T03:20:30;3.80;;;1.20;;
84163;SDS011;74288;46.872;7.802;2024-01-30T03:22:56;3.80;;;1.20;;
84163;SDS011;74288;46.872;7.802;2024-01-30T03:25:22;4.03;;;1.15;;
84163;SDS011;74288;46.872;7.802;2024-01-30T03:27:48;3.92;;;1.30;;
84163;SDS011;74288;46.872;7.802;2024-01-30T03:30:14;3.85;;;0.98;;
84163;SDS011;74288;46.872;7.802;2024-01-30T03:32:40;3.33;;;1.17;;
84163;SDS011;74288;46.872;7.802;2024-01-30T03:35:06;3.35;;;1.10;;
84163;SDS011;74288;46.872;7.802;2024-01-30T03:37:32;3.90;;;1.05;;
84163;SDS011;74288;46.872;7.802;2024-01-30T03:39:58;3.75;;;1.20;;
84163;SDS011;74288;46.872;7.802;2024-01-30T03:42:24;3.33;;;1.07;;
84163;SDS011;74288;46.872;7.802;2024-01-30T03:44:50;2.95;;;1.02;;
84163;SDS011;74288;46.872;7.802;2024-01-30T03:47:18;3.53;;;1.08;;
84163;SDS011;74288;46.872;7.802;2024-01-30T03:49:45;3.67;;;1.10;;
84163;SDS011;74288;46.872;7.802;2024-01-30T03:52:11;4.32;;;1.20;;
84163;SDS011;74288;46.872;7.802;2024-01-30T03:54:37;5.03;;;1.30;;
84163;SDS011;74288;46.872;7.802;2024-01-30T03:57:03;4.68;;;1.20;;
84163;SDS011;74288;46.872;7.802;2024-01-30T03:59:29;5.35;;;1.52;;
84163;SDS011;74288;46.872;7.802;2024-01-30T04:01:55;4.97;;;1.60;;
84163;SDS011;74288;46.872;7.802;2024-01-30T04:04:21;3.20;;;1.20;;
84163;SDS011;74288;46.872;7.802;2024-01-30T04:06:48;3.83;;;1.02;;
84163;SDS011;74288;46.872;7.802;2024-01-30T04:09:14;4.75;;;1.45;;
84163;SDS011;74288;46.872;7.802;2024-01-30T04:11:40;4.50;;;1.40;;
84163;SDS011;74288;46.872;7.802;2024-01-30T04:14:06;5.03;;;1.40;;
84163;SDS011;74288;46.872;7.802;2024-01-30T04:16:32;8.13;;;2.50;;
84163;SDS011;74288;46.872;7.802;2024-01-30T04:18:58;8.13;;;2.70;;
84163;SDS011;74288;46.872;7.802;2024-01-30T04:21:24;8.68;;;2.58;;
84163;SDS011;74288;46.872;7.802;2024-01-30T04:23:51;5.23;;;2.00;;
84163;SDS011;74288;46.872;7.802;2024-01-30T04:26:17;8.23;;;2.33;;
84163;SDS011;74288;46.872;7.802;2024-01-30T04:28:44;6.15;;;2.00;;
84163;SDS011;74288;46.872;7.802;2024-01-30T04:31:10;7.85;;;2.13;;
84163;SDS011;74288;46.872;7.802;2024-01-30T04:33:36;5.33;;;1.80;;
84163;SDS011;74288;46.872;7.802;2024-01-30T04:36:03;6.47;;;2.10;;
84163;SDS011;74288;46.872;7.802;2024-01-30T04:38:29;6.40;;;1.90;;
84163;SDS011;74288;46.872;7.802;2024-01-30T04:40:55;5.13;;;1.70;;
84163;SDS011;74288;46.872;7.802;2024-01-30T04:43:21;5.20;;;1.60;;
84163;SDS011;74288;46.872;7.802;2024-01-30T04:45:47;5.32;;;1.88;;
84163;SDS011;74288;46.872;7.802;2024-01-30T04:48:13;5.70;;;1.83;;
84163;SDS011;74288;46.872;7.802;2024-01-30T04:50:39;5.18;;;1.70;;
84163;SDS011;74288;46.872;7.802;2024-01-30T04:53:05;4.20;;;1.50;;
84163;SDS011;74288;46.872;7.802;2024-01-30T04:55:32;8.05;;;1.77;;
84163;SDS011;74288;46.872;7.802;2024-01-30T04:57:58;6.05;;;2.00;;
84163;SDS011;74288;46.872;7.802;2024-01-30T05:00:24;5.43;;;1.70;;
84163;SDS011;74288;46.872;7.802;2024-01-30T05:02:50;6.23;;;1.63;;
84163;SDS011;74288;46.872;7.802;2024-01-30T05:05:16;4.85;;;1.77;;
84163;SDS011;74288;46.872;7.802;2024-01-30T05:07:42;6.32;;;1.83;;
84163;SDS011;74288;46.872;7.802;2024-01-30T05:10:08;8.73;;;2.10;;
84163;SDS011;74288;46.872;7.802;2024-01-30T05:12:34;8.95;;;2.60;;
84163;SDS011;74288;46.872;7.802;2024-01-30T05:15:00;9.40;;;2.50;;
84163;SDS011;74288;46.872;7.802;2024-01-30T05:17:26;10.32;;;2.40;;
84163;SDS011;74288;46.872;7.802;2024-01-30T05:19:52;10.27;;;2.53;;
84163;SDS011;74288;46.872;7.802;2024-01-30T05:22:18;10.60;;;2.80;;
84163;SDS011;74288;46.872;7.802;2024-01-30T05:24:44;15.52;;;4.30;;
84163;SDS011;74288;46.872;7.802;2024-01-30T05:27:10;9.55;;;3.03;;
84163;SDS011;74288;46.872;7.802;2024-01-30T05:29:38;7.50;;;2.47;;
84163;SDS011;74288;46.872;7.802;2024-01-30T05:32:04;6.82;;;2.28;;
84163;SDS011;74288;46.872;7.802;2024-01-30T05:34:30;11.30;;;2.60;;
84163;SDS011;74288;46.872;7.802;2024-01-30T05:36:56;7.68;;;2.55;;
84163;SDS011;74288;46.872;7.802;2024-01-30T05:39:22;11.30;;;2.87;;
84163;SDS011;74288;46.872;7.802;2024-01-30T05:41:48;9.20;;;2.90;;
84163;SDS011;74288;46.872;7.802;2024-01-30T05:44:14;5.78;;;1.90;;
84163;SDS011;74288;46.872;7.802;2024-01-30T05:46:40;6.22;;;1.90;;
84163;SDS011;74288;46.872;7.802;2024-01-30T05:49:06;6.90;;;2.30;;
84163;SDS011;74288;46.872;7.802;2024-01-30T05:51:32;7.43;;;2.50;;
84163;SDS011;74288;46.872;7.802;2024-01-30T05:53:58;5.50;;;2.10;;
84163;SDS011;74288;46.872;7.802;2024-01-30T05:56:24;6.97;;;2.30;;
84163;SDS011;74288;46.872;7.802;2024-01-30T05:58:50;8.40;;;2.20;;
84163;SDS011;74288;46.872;7.802;2024-01-30T06:01:16;8.32;;;2.53;;
84163;SDS011;74288;46.872;7.802;2024-01-30T06:03:42;7.15;;;2.60;;
84163;SDS011;74288;46.872;7.802;2024-01-30T06:06:08;8.43;;;2.70;;
84163;SDS011;74288;46.872;7.802;2024-01-30T06:08:34;9.18;;;2.45;;
84163;SDS011;74288;46.872;7.802;2024-01-30T06:11:00;12.98;;;3.53;;
84163;SDS011;74288;46.872;7.802;2024-01-30T06:13:26;10.55;;;2.75;;
84163;SDS011;74288;46.872;7.802;2024-01-30T06:15:52;6.63;;;2.20;;
84163;SDS011;74288;46.872;7.802;2024-01-30T06:18:18;7.00;;;1.93;;
84163;SDS011;74288;46.872;7.802;2024-01-30T06:20:45;6.43;;;2.25;;
84163;SDS011;74288;46.872;7.802;2024-01-30T06:23:11;6.22;;;2.33;;
84163;SDS011;74288;46.872;7.802;2024-01-30T06:25:37;6.55;;;2.50;;
84163;SDS011;74288;46.872;7.802;2024-01-30T06:28:04;6.30;;;1.90;;
84163;SDS011;74288;46.872;7.802;2024-01-30T06:30:30;7.72;;;2.55;;
84163;SDS011;74288;46.872;7.802;2024-01-30T06:32:56;7.13;;;2.40;;
84163;SDS011;74288;46.872;7.802;2024-01-30T06:35:22;8.73;;;3.10;;
84163;SDS011;74288;46.872;7.802;2024-01-30T06:37:48;8.65;;;3.17;;
84163;SDS011;74288;46.872;7.802;2024-01-30T06:40:13;8.63;;;3.13;;
84163;SDS011;74288;46.872;7.802;2024-01-30T06:42:39;9.98;;;3.40;;
84163;SDS011;74288;46.872;7.802;2024-01-30T06:45:06;11.33;;;3.83;;
84163;SDS011;74288;46.872;7.802;2024-01-30T06:47:32;13.13;;;4.50;;
84163;SDS011;74288;46.872;7.802;2024-01-30T06:49:58;10.20;;;3.83;;
84163;SDS011;74288;46.872;7.802;2024-01-30T06:52:24;12.23;;;3.55;;
84163;SDS011;74288;46.872;7.802;2024-01-30T06:54:50;10.77;;;3.47;;
84163;SDS011;74288;46.872;7.802;2024-01-30T06:57:16;11.52;;;3.47;;
84163;SDS011;74288;46.872;7.802;2024-01-30T06:59:42;7.38;;;2.50;;
84163;SDS011;74288;46.872;7.802;2024-01-30T07:02:11;7.40;;;2.30;;
84163;SDS011;74288;46.872;7.802;2024-01-30T07:04:37;6.07;;;2.10;;
84163;SDS011;74288;46.872;7.802;2024-01-30T07:07:05;5.13;;;1.60;;
84163;SDS011;74288;46.872;7.802;2024-01-30T07:09:36;6.72;;;2.40;;
84163;SDS011;74288;46.872;7.802;2024-01-30T07:12:02;10.27;;;2.92;;
84163;SDS011;74288;46.872;7.802;2024-01-30T07:14:28;8.10;;;3.27;;
84163;SDS011;74288;46.872;7.802;2024-01-30T07:16:54;7.28;;;2.45;;
84163;SDS011;74288;46.872;7.802;2024-01-30T07:19:20;8.75;;;2.55;;
84163;SDS011;74288;46.872;7.802;2024-01-30T07:21:46;9.40;;;2.78;;
84163;SDS011;74288;46.872;7.802;2024-01-30T07:24:12;5.40;;;2.00;;
84163;SDS011;74288;46.872;7.802;2024-01-30T07:26:38;6.18;;;1.92;;
84163;SDS011;74288;46.872;7.802;2024-01-30T07:29:04;7.43;;;2.50;;
84163;SDS011;74288;46.872;7.802;2024-01-30T07:31:31;6.53;;;2.33;;
84163;SDS011;74288;46.872;7.802;2024-01-30T07:33:57;7.17;;;2.43;;
84163;SDS011;74288;46.872;7.802;2024-01-30T07:36:23;7.20;;;2.85;;
84163;SDS011;74288;46.872;7.802;2024-01-30T07:38:48;5.50;;;2.10;;
84163;SDS011;74288;46.872;7.802;2024-01-30T07:41:14;7.15;;;2.35;;
84163;SDS011;74288;46.872;7.802;2024-01-30T07:43:40;6.40;;;2.37;;
84163;SDS011;74288;46.872;7.802;2024-01-30T07:46:06;6.78;;;2.17;;
84163;SDS011;74288;46.872;7.802;2024-01-30T07:48:33;6.50;;;2.40;;
84163;SDS011;74288;46.872;7.802;2024-01-30T07:50:59;8.13;;;2.93;;
84163;SDS011;74288;46.872;7.802;2024-01-30T07:53:25;8.10;;;3.25;;
84163;SDS011;74288;46.872;7.802;2024-01-30T07:55:51;7.78;;;2.70;;
84163;SDS011;74288;46.872;7.802;2024-01-30T07:58:17;7.95;;;2.72;;
84163;SDS011;74288;46.872;7.802;2024-01-30T08:00:44;6.97;;;2.45;;
84163;SDS011;74288;46.872;7.802;2024-01-30T08:03:10;5.70;;;2.10;;
84163;SDS011;74288;46.872;7.802;2024-01-30T08:05:36;8.93;;;2.53;;
84163;SDS011;74288;46.872;7.802;2024-01-30T08:08:04;7.68;;;2.78;;
84163;SDS011;74288;46.872;7.802;2024-01-30T08:10:30;7.65;;;2.58;;
84163;SDS011;74288;46.872;7.802;2024-01-30T08:12:56;8.82;;;3.22;;
84163;SDS011;74288;46.872;7.802;2024-01-30T08:15:22;8.93;;;3.70;;
84163;SDS011;74288;46.872;7.802;2024-01-30T08:17:48;10.90;;;4.50;;
84163;SDS011;74288;46.872;7.802;2024-01-30T08:20:13;12.02;;;5.18;;
84163;SDS011;74288;46.872;7.802;2024-01-30T08:22:39;13.80;;;5.65;;
84163;SDS011;74288;46.872;7.802;2024-01-30T08:25:06;14.65;;;5.90;;
84163;SDS011;74288;46.872;7.802;2024-01-30T08:27:32;12.55;;;4.35;;
84163;SDS011;74288;46.872;7.802;2024-01-30T08:30:00;9.98;;;3.78;;
84163;SDS011;74288;46.872;7.802;2024-01-30T08:32:26;9.63;;;3.72;;
84163;SDS011;74288;46.872;7.802;2024-01-30T08:34:52;18.15;;;7.35;;
84163;SDS011;74288;46.872;7.802;2024-01-30T08:37:18;19.58;;;7.85;;
84163;SDS011;74288;46.872;7.802;2024-01-30T08:39:43;21.13;;;8.63;;
84163;SDS011;74288;46.872;7.802;2024-01-30T08:42:09;16.73;;;7.13;;
84163;SDS011;74288;46.872;7.802;2024-01-30T08:44:36;15.00;;;5.13;;
84163;SDS011;74288;46.872;7.802;2024-01-30T08:47:03;10.63;;;4.50;;
84163;SDS011;74288;46.872;7.802;2024-01-30T08:49:29;11.48;;;3.75;;
84163;SDS011;74288;46.872;7.802;2024-01-30T08:51:56;7.80;;;3.30;;
84163;SDS011;74288;46.872;7.802;2024-01-30T08:54:23;7.83;;;2.80;;
84163;SDS011;74288;46.872;7.802;2024-01-30T08:56:49;9.85;;;3.05;;
84163;SDS011;74288;46.872;7.802;2024-01-30T08:59:15;8.05;;;3.65;;
84163;SDS011;74288;46.872;7.802;2024-01-30T09:01:40;8.23;;;3.70;;
84163;SDS011;74288;46.872;7.802;2024-01-30T09:04:06;8.55;;;3.78;;
84163;SDS011;74288;46.872;7.802;2024-01-30T09:06:32;7.82;;;3.00;;
84163;SDS011;74288;46.872;7.802;2024-01-30T09:08:58;9.30;;;3.40;;
84163;SDS011;74288;46.872;7.802;2024-01-30T09:11:24;8.73;;;3.17;;
84163;SDS011;74288;46.872;7.802;2024-01-30T09:13:50;7.00;;;3.05;;
84163;SDS011;74288;46.872;7.802;2024-01-30T09:21:27;9.50;;;3.70;;
84163;SDS011;74288;46.872;7.802;2024-01-30T09:23:54;9.40;;;3.85;;
84163;SDS011;74288;46.872;7.802;2024-01-30T09:26:20;11.65;;;4.45;;
84163;SDS011;74288;46.872;7.802;2024-01-30T09:28:46;16.55;;;6.57;;
84163;SDS011;74288;46.872;7.802;2024-01-30T09:31:12;62.70;;;20.93;;
84163;SDS011;74288;46.872;7.802;2024-01-30T09:36:14;59.30;;;20.15;;
84163;SDS011;74288;46.872;7.802;2024-01-30T09:38:43;36.63;;;12.48;;
84163;SDS011;74288;46.872;7.802;2024-01-30T09:41:09;24.13;;;8.60;;
84163;SDS011;74288;46.872;7.802;2024-01-30T09:43:36;16.67;;;6.37;;
84163;SDS011;74288;46.872;7.802;2024-01-30T09:48:46;11.27;;;4.50;;
84163;SDS011;74288;46.872;7.802;2024-01-30T09:56:27;10.40;;;3.90;;
84163;SDS011;74288;46.872;7.802;2024-01-30T09:58:53;12.75;;;4.60;;
84163;SDS011;74288;46.872;7.802;2024-01-30T10:01:19;13.55;;;5.20;;
84163;SDS011;74288;46.872;7.802;2024-01-30T10:03:45;15.07;;;5.57;;
84163;SDS011;74288;46.872;7.802;2024-01-30T10:06:11;18.00;;;6.45;;
84163;SDS011;74288;46.872;7.802;2024-01-30T10:08:37;14.77;;;5.90;;
84163;SDS011;74288;46.872;7.802;2024-01-30T10:11:03;11.10;;;4.60;;
84163;SDS011;74288;46.872;7.802;2024-01-30T10:13:29;11.13;;;4.28;;
84163;SDS011;74288;46.872;7.802;2024-01-30T10:26:18;13.95;;;5.13;;
84163;SDS011;74288;46.872;7.802;2024-01-30T10:28:44;12.57;;;4.93;;
84163;SDS011;74288;46.872;7.802;2024-01-30T10:31:10;11.32;;;4.43;;
84163;SDS011;74288;46.872;7.802;2024-01-30T10:33:36;13.02;;;4.38;;
84163;SDS011;74288;46.872;7.802;2024-01-30T10:36:03;11.63;;;4.13;;
84163;SDS011;74288;46.872;7.802;2024-01-30T10:38:29;10.50;;;4.03;;
84163;SDS011;74288;46.872;7.802;2024-01-30T10:46:11;8.13;;;3.50;;
84163;SDS011;74288;46.872;7.802;2024-01-30T10:48:43;8.73;;;3.40;;
84163;SDS011;74288;46.872;7.802;2024-01-30T10:51:14;11.57;;;3.67;;
84163;SDS011;74288;46.872;7.802;2024-01-30T10:53:40;8.23;;;3.67;;
84163;SDS011;74288;46.872;7.802;2024-01-30T10:56:07;8.77;;;3.28;;
84163;SDS011;74288;46.872;7.802;2024-01-30T10:58:33;9.48;;;3.70;;
84163;SDS011;74288;46.872;7.802;2024-01-30T11:00:59;8.43;;;3.17;;
84163;SDS011;74288;46.872;7.802;2024-01-30T11:03:26;8.82;;;3.22;;
84163;SDS011;74288;46.872;7.802;2024-01-30T11:05:52;8.30;;;3.03;;
84163;SDS011;74288;46.872;7.802;2024-01-30T11:08:24;7.28;;;3.15;;
84163;SDS011;74288;46.872;7.802;2024-01-30T11:11:01;8.02;;;3.30;;
84163;SDS011;74288;46.872;7.802;2024-01-30T11:13:29;11.23;;;3.40;;
84163;SDS011;74288;46.872;7.802;2024-01-30T11:15:55;8.02;;;3.30;;
84163;SDS011;74288;46.872;7.802;2024-01-30T11:18:24;11.10;;;4.40;;
84163;SDS011;74288;46.872;7.802;2024-01-30T11:20:51;12.00;;;4.57;;
84163;SDS011;74288;46.872;7.802;2024-01-30T11:23:17;16.40;;;7.25;;
84163;SDS011;74288;46.872;7.802;2024-01-30T11:25:43;15.67;;;5.87;;
84163;SDS011;74288;46.872;7.802;2024-01-30T11:28:14;14.02;;;5.35;;
84163;SDS011;74288;46.872;7.802;2024-01-30T11:30:43;13.90;;;5.60;;
84163;SDS011;74288;46.872;7.802;2024-01-30T11:33:10;15.30;;;7.03;;
84163;SDS011;74288;46.872;7.802;2024-01-30T11:35:40;16.27;;;7.07;;
84163;SDS011;74288;46.872;7.802;2024-01-30T11:38:07;17.70;;;7.30;;
84163;SDS011;74288;46.872;7.802;2024-01-30T11:40:34;13.60;;;5.72;;
84163;SDS011;74288;46.872;7.802;2024-01-30T11:43:00;12.02;;;5.05;;
84163;SDS011;74288;46.872;7.802;2024-01-30T11:45:27;11.25;;;5.22;;
84163;SDS011;74288;46.872;7.802;2024-01-30T11:47:53;11.48;;;4.80;;
84163;SDS011;74288;46.872;7.802;2024-01-30T11:50:19;13.27;;;5.50;;
84163;SDS011;74288;46.872;7.802;2024-01-30T11:52:45;10.55;;;4.60;;
84163;SDS011;74288;46.872;7.802;2024-01-30T11:55:12;10.07;;;4.90;;
84163;SDS011;74288;46.872;7.802;2024-01-30T11:57:38;9.75;;;4.45;;
84163;SDS011;74288;46.872;7.802;2024-01-30T12:00:05;9.90;;;4.63;;
84163;SDS011;74288;46.872;7.802;2024-01-30T12:02:41;10.47;;;4.53;;
84163;SDS011;74288;46.872;7.802;2024-01-30T12:05:08;8.88;;;4.25;;
84163;SDS011;74288;46.872;7.802;2024-01-30T12:07:34;9.10;;;3.92;;
84163;SDS011;74288;46.872;7.802;2024-01-30T12:10:00;9.88;;;4.00;;
84163;SDS011;74288;46.872;7.802;2024-01-30T12:12:27;8.35;;;3.50;;
84163;SDS011;74288;46.872;7.802;2024-01-30T12:14:53;7.83;;;3.40;;
84163;SDS011;74288;46.872;7.802;2024-01-30T12:17:27;7.82;;;3.45;;
84163;SDS011;74288;46.872;7.802;2024-01-30T12:20:07;9.15;;;3.08;;
84163;SDS011;74288;46.872;7.802;2024-01-30T12:22:36;10.05;;;3.53;;
84163;SDS011;74288;46.872;7.802;2024-01-30T12:25:04;7.00;;;3.25;;
84163;SDS011;74288;46.872;7.802;2024-01-30T12:27:30;9.00;;;3.30;;
84163;SDS011;74288;46.872;7.802;2024-01-30T12:29:56;9.18;;;3.40;;
84163;SDS011;74288;46.872;7.802;2024-01-30T12:32:23;9.20;;;3.45;;
84163;SDS011;74288;46.872;7.802;2024-01-30T12:34:49;9.57;;;3.50;;
84163;SDS011;74288;46.872;7.802;2024-01-30T12:37:15;7.05;;;3.15;;
84163;SDS011;74288;46.872;7.802;2024-01-30T12:39:47;6.93;;;3.17;;
84163;SDS011;74288;46.872;7.802;2024-01-30T12:42:13;7.78;;;3.05;;
84163;SDS011;74288;46.872;7.802;2024-01-30T12:44:39;9.70;;;3.40;;
84163;SDS011;74288;46.872;7.802;2024-01-30T12:47:05;8.80;;;3.08;;
84163;SDS011;74288;46.872;7.802;2024-01-30T12:49:31;7.47;;;3.28;;
84163;SDS011;74288;46.872;7.802;2024-01-30T12:51:58;10.07;;;3.30;;
84163;SDS011;74288;46.872;7.802;2024-01-30T12:54:24;7.10;;;2.80;;
84163;SDS011;74288;46.872;7.802;2024-01-30T12:56:50;7.45;;;3.20;;
84163;SDS011;74288;46.872;7.802;2024-01-30T12:59:16;7.30;;;2.90;;
84163;SDS011;74288;46.872;7.802;2024-01-30T13:01:42;6.50;;;2.90;;
84163;SDS011;74288;46.872;7.802;2024-01-30T13:04:08;7.72;;;3.20;;
84163;SDS011;74288;46.872;7.802;2024-01-30T13:06:34;7.13;;;3.30;;
84163;SDS011;74288;46.872;7.802;2024-01-30T13:08:59;9.05;;;3.38;;
84163;SDS011;74288;46.872;7.802;2024-01-30T13:11:25;7.00;;;3.30;;
84163;SDS011;74288;46.872;7.802;2024-01-30T13:13:51;9.75;;;3.67;;
84163;SDS011;74288;46.872;7.802;2024-01-30T13:16:17;8.38;;;3.45;;
84163;SDS011;74288;46.872;7.802;2024-01-30T13:18:43;8.70;;;3.67;;
84163;SDS011;74288;46.872;7.802;2024-01-30T13:21:10;9.77;;;3.53;;
84163;SDS011;74288;46.872;7.802;2024-01-30T13:23:35;10.93;;;3.53;;
84163;SDS011;74288;46.872;7.802;2024-01-30T13:26:01;8.85;;;3.80;;
84163;SDS011;74288;46.872;7.802;2024-01-30T13:28:27;7.68;;;3.45;;
84163;SDS011;74288;46.872;7.802;2024-01-30T13:30:53;7.25;;;3.40;;
84163;SDS011;74288;46.872;7.802;2024-01-30T13:33:19;9.60;;;3.38;;
84163;SDS011;74288;46.872;7.802;2024-01-30T13:35:45;8.07;;;3.30;;
84163;SDS011;74288;46.872;7.802;2024-01-30T13:38:11;9.50;;;3.63;;
84163;SDS011;74288;46.872;7.802;2024-01-30T13:40:38;8.32;;;3.30;;
84163;SDS011;74288;46.872;7.802;2024-01-30T13:43:04;7.25;;;3.35;;
84163;SDS011;74288;46.872;7.802;2024-01-30T13:45:30;8.35;;;3.33;;
84163;SDS011;74288;46.872;7.802;2024-01-30T13:47:56;7.43;;;3.17;;
84163;SDS011;74288;46.872;7.802;2024-01-30T13:50:22;8.32;;;3.20;;
84163;SDS011;74288;46.872;7.802;2024-01-30T13:52:48;8.52;;;3.30;;
84163;SDS011;74288;46.872;7.802;2024-01-30T13:55:14;9.10;;;3.10;;
84163;SDS011;74288;46.872;7.802;2024-01-30T13:57:40;7.85;;;3.20;;
84163;SDS011;74288;46.872;7.802;2024-01-30T14:00:06;7.22;;;3.25;;
84163;SDS011;74288;46.872;7.802;2024-01-30T14:02:32;9.37;;;3.30;;
84163;SDS011;74288;46.872;7.802;2024-01-30T14:04:59;12.05;;;3.45;;
84163;SDS011;74288;46.872;7.802;2024-01-30T14:07:25;10.52;;;3.38;;
84163;SDS011;74288;46.872;7.802;2024-01-30T14:09:51;8.20;;;3.30;;
84163;SDS011;74288;46.872;7.802;2024-01-30T14:12:17;9.67;;;3.40;;
84163;SDS011;74288;46.872;7.802;2024-01-30T14:14:43;9.32;;;3.40;;
84163;SDS011;74288;46.872;7.802;2024-01-30T14:17:09;7.82;;;2.95;;
84163;SDS011;74288;46.872;7.802;2024-01-30T14:19:35;6.57;;;2.70;;
84163;SDS011;74288;46.872;7.802;2024-01-30T14:22:01;7.13;;;2.67;;
84163;SDS011;74288;46.872;7.802;2024-01-30T14:24:27;8.32;;;3.20;;
84163;SDS011;74288;46.872;7.802;2024-01-30T14:26:53;9.50;;;3.40;;
84163;SDS011;74288;46.872;7.802;2024-01-30T14:29:19;8.35;;;3.10;;
84163;SDS011;74288;46.872;7.802;2024-01-30T14:31:45;8.82;;;3.28;;
84163;SDS011;74288;46.872;7.802;2024-01-30T14:34:11;9.20;;;3.47;;
84163;SDS011;74288;46.872;7.802;2024-01-30T14:36:37;6.93;;;2.80;;
84163;SDS011;74288;46.872;7.802;2024-01-30T14:39:04;6.93;;;2.83;;
84163;SDS011;74288;46.872;7.802;2024-01-30T14:41:31;8.35;;;2.83;;
84163;SDS011;74288;46.872;7.802;2024-01-30T14:43:57;6.03;;;2.70;;
84163;SDS011;74288;46.872;7.802;2024-01-30T14:46:24;7.43;;;2.78;;
84163;SDS011;74288;46.872;7.802;2024-01-30T14:48:51;8.80;;;3.25;;
84163;SDS011;74288;46.872;7.802;2024-01-30T14:51:17;6.82;;;2.70;;
84163;SDS011;74288;46.872;7.802;2024-01-30T14:53:43;7.80;;;2.90;;
84163;SDS011;74288;46.872;7.802;2024-01-30T14:56:09;7.13;;;3.10;;
84163;SDS011;74288;46.872;7.802;2024-01-30T14:58:35;7.50;;;2.60;;
84163;SDS011;74288;46.872;7.802;2024-01-30T15:01:02;6.10;;;2.53;;
84163;SDS011;74288;46.872;7.802;2024-01-30T15:03:28;7.25;;;2.88;;
84163;SDS011;74288;46.872;7.802;2024-01-30T15:05:54;6.83;;;3.00;;
84163;SDS011;74288;46.872;7.802;2024-01-30T15:08:20;7.00;;;2.92;;
84163;SDS011;74288;46.872;7.802;2024-01-30T15:10:46;7.60;;;2.85;;